sensor_id;sensor_type;location;lat;lon;timestamp;P1;durP1;ratioP1;P2;durP2;ratioP2
75423;SDS011;64005;55.160;36.002;2023-06-26T00:02:15;7.90;;;4.65;;
75423;SDS011;64005;55.160;36.002;2023-06-26T00:12:30;8.55;;;5.00;;
75423;SDS011;64005;55.160;36.002;2023-06-26T00:20:28;8.60;;;5.20;;
75423;SDS011;64005;55.160;36.002;2023-06-26T00:22:59;8.70;;;4.57;;
75423;SDS011;64005;55.160;36.002;2023-06-26T00:25:29;11.27;;;5.40;;
75423;SDS011;64005;55.160;36.002;2023-06-26T00:27:58;11.43;;;5.10;;
75423;SDS011;64005;55.160;36.002;2023-06-26T00:47:14;10.27;;;5.22;;
75423;SDS011;64005;55.160;36.002;2023-06-26T00:49:45;11.73;;;4.80;;
75423;SDS011;64005;55.160;36.002;2023-06-26T00:57:30;8.70;;;4.30;;
75423;SDS011;64005;55.160;36.002;2023-06-26T00:59:58;8.77;;;4.97;;
75423;SDS011;64005;55.160;36.002;2023-06-26T01:05:07;10.63;;;5.05;;
75423;SDS011;64005;55.160;36.002;2023-06-26T01:13:07;10.85;;;5.05;;
75423;SDS011;64005;55.160;36.002;2023-06-26T01:26:25;11.23;;;5.00;;
75423;SDS011;64005;55.160;36.002;2023-06-26T01:28:56;10.75;;;5.38;;
75423;SDS011;64005;55.160;36.002;2023-06-26T01:31:26;13.07;;;6.07;;
75423;SDS011;64005;55.160;36.002;2023-06-26T01:33:56;11.60;;;5.72;;
75423;SDS011;64005;55.160;36.002;2023-06-26T01:36:25;10.88;;;5.50;;
75423;SDS011;64005;55.160;36.002;2023-06-26T01:38:53;9.65;;;5.45;;
75423;SDS011;64005;55.160;36.002;2023-06-26T01:41:21;9.48;;;5.53;;
75423;SDS011;64005;55.160;36.002;2023-06-26T01:44:01;11.93;;;5.65;;
75423;SDS011;64005;55.160;36.002;2023-06-26T01:46:39;12.02;;;5.35;;
75423;SDS011;64005;55.160;36.002;2023-06-26T01:49:13;13.27;;;5.30;;
75423;SDS011;64005;55.160;36.002;2023-06-26T01:51:46;11.38;;;5.82;;
75423;SDS011;64005;55.160;36.002;2023-06-26T01:54:18;11.93;;;6.10;;
75423;SDS011;64005;55.160;36.002;2023-06-26T01:56:50;11.07;;;5.90;;
75423;SDS011;64005;55.160;36.002;2023-06-26T01:59:22;12.05;;;5.95;;
75423;SDS011;64005;55.160;36.002;2023-06-26T02:01:52;12.40;;;5.45;;
75423;SDS011;64005;55.160;36.002;2023-06-26T02:04:19;9.60;;;5.53;;
75423;SDS011;64005;55.160;36.002;2023-06-26T02:06:47;10.70;;;5.20;;
75423;SDS011;64005;55.160;36.002;2023-06-26T02:09:14;12.52;;;6.07;;
75423;SDS011;64005;55.160;36.002;2023-06-26T02:11:43;13.43;;;5.38;;
75423;SDS011;64005;55.160;36.002;2023-06-26T02:14:10;10.07;;;5.47;;
75423;SDS011;64005;55.160;36.002;2023-06-26T02:16:39;12.38;;;6.20;;
75423;SDS011;64005;55.160;36.002;2023-06-26T02:19:07;12.15;;;5.43;;
75423;SDS011;64005;55.160;36.002;2023-06-26T02:21:54;21.65;;;5.90;;
75423;SDS011;64005;55.160;36.002;2023-06-26T02:24:22;11.10;;;5.93;;
75423;SDS011;64005;55.160;36.002;2023-06-26T02:26:49;11.07;;;5.45;;
75423;SDS011;64005;55.160;36.002;2023-06-26T02:29:17;11.48;;;5.85;;
75423;SDS011;64005;55.160;36.002;2023-06-26T02:31:46;11.70;;;5.22;;
75423;SDS011;64005;55.160;36.002;2023-06-26T02:34:14;13.18;;;6.70;;
75423;SDS011;64005;55.160;36.002;2023-06-26T02:36:41;14.85;;;5.70;;
75423;SDS011;64005;55.160;36.002;2023-06-26T02:39:09;13.18;;;5.88;;
75423;SDS011;64005;55.160;36.002;2023-06-26T02:41:41;12.27;;;6.15;;
75423;SDS011;64005;55.160;36.002;2023-06-26T02:44:09;12.20;;;6.40;;
75423;SDS011;64005;55.160;36.002;2023-06-26T02:46:37;12.02;;;5.65;;
75423;SDS011;64005;55.160;36.002;2023-06-26T02:49:06;11.10;;;5.72;;
75423;SDS011;64005;55.160;36.002;2023-06-26T02:51:34;10.95;;;5.35;;
75423;SDS011;64005;55.160;36.002;2023-06-26T02:54:01;10.98;;;5.85;;
75423;SDS011;64005;55.160;36.002;2023-06-26T02:56:29;12.23;;;5.97;;
75423;SDS011;64005;55.160;36.002;2023-06-26T02:58:57;10.48;;;5.07;;
75423;SDS011;64005;55.160;36.002;2023-06-26T03:01:25;9.50;;;5.25;;
75423;SDS011;64005;55.160;36.002;2023-06-26T03:03:52;10.60;;;5.68;;
75423;SDS011;64005;55.160;36.002;2023-06-26T03:06:21;13.52;;;5.65;;
75423;SDS011;64005;55.160;36.002;2023-06-26T03:08:48;12.98;;;5.82;;
75423;SDS011;64005;55.160;36.002;2023-06-26T03:11:16;12.40;;;5.68;;
75423;SDS011;64005;55.160;36.002;2023-06-26T03:13:43;11.38;;;6.03;;
75423;SDS011;64005;55.160;36.002;2023-06-26T05:10:28;8.57;;;4.88;;
75423;SDS011;64005;55.160;36.002;2023-06-26T05:15:31;11.30;;;5.45;;
75423;SDS011;64005;55.160;36.002;2023-06-26T05:17:59;9.60;;;4.88;;
75423;SDS011;64005;55.160;36.002;2023-06-26T05:20:27;7.88;;;4.70;;
75423;SDS011;64005;55.160;36.002;2023-06-26T13:21:00;16.58;;;5.65;;
75423;SDS011;64005;55.160;36.002;2023-06-26T16:23:30;10.95;;;5.70;;
75423;SDS011;64005;55.160;36.002;2023-06-26T16:59:57;8.88;;;4.85;;
75423;SDS011;64005;55.160;36.002;2023-06-26T19:22:36;11.27;;;5.88;;
75423;SDS011;64005;55.160;36.002;2023-06-26T19:32:51;14.30;;;6.43;;
75423;SDS011;64005;55.160;36.002;2023-06-26T20:06:24;13.77;;;7.18;;
75423;SDS011;64005;55.160;36.002;2023-06-26T20:08:53;10.93;;;6.35;;
75423;SDS011;64005;55.160;36.002;2023-06-26T20:11:20;9.68;;;5.80;;
75423;SDS011;64005;55.160;36.002;2023-06-26T20:13:48;12.18;;;6.90;;
75423;SDS011;64005;55.160;36.002;2023-06-26T20:18:57;12.05;;;6.47;;
75423;SDS011;64005;55.160;36.002;2023-06-26T20:21:26;12.98;;;6.47;;
75423;SDS011;64005;55.160;36.002;2023-06-26T20:23:54;13.70;;;6.47;;
75423;SDS011;64005;55.160;36.002;2023-06-26T20:26:34;11.77;;;6.28;;
75423;SDS011;64005;55.160;36.002;2023-06-26T20:40:31;11.57;;;5.60;;
75423;SDS011;64005;55.160;36.002;2023-06-26T20:42:59;11.57;;;5.97;;
75423;SDS011;64005;55.160;36.002;2023-06-26T21:06:10;12.02;;;6.07;;
75423;SDS011;64005;55.160;36.002;2023-06-26T21:21:36;15.65;;;5.93;;
75423;SDS011;64005;55.160;36.002;2023-06-26T21:24:04;13.30;;;7.03;;
75423;SDS011;64005;55.160;36.002;2023-06-26T21:36:54;14.32;;;7.55;;
75423;SDS011;64005;55.160;36.002;2023-06-26T21:44:33;12.95;;;6.28;;
75423;SDS011;64005;55.160;36.002;2023-06-26T21:50:18;13.05;;;6.75;;
75423;SDS011;64005;55.160;36.002;2023-06-26T21:52:47;12.45;;;6.65;;
75423;SDS011;64005;55.160;36.002;2023-06-26T22:11:14;15.23;;;6.07;;
75423;SDS011;64005;55.160;36.002;2023-06-26T22:22:09;13.32;;;6.05;;
75423;SDS011;64005;55.160;36.002;2023-06-26T22:24:37;11.75;;;6.63;;
75423;SDS011;64005;55.160;36.002;2023-06-26T22:27:07;11.50;;;6.35;;
75423;SDS011;64005;55.160;36.002;2023-06-26T22:29:35;14.93;;;5.97;;
75423;SDS011;64005;55.160;36.002;2023-06-26T22:32:03;13.23;;;6.35;;
75423;SDS011;64005;55.160;36.002;2023-06-26T22:34:31;11.73;;;5.85;;
75423;SDS011;64005;55.160;36.002;2023-06-26T22:36:59;11.73;;;6.25;;
75423;SDS011;64005;55.160;36.002;2023-06-26T22:39:26;12.70;;;6.45;;
75423;SDS011;64005;55.160;36.002;2023-06-26T23:00:02;13.00;;;6.53;;
75423;SDS011;64005;55.160;36.002;2023-06-26T23:02:51;12.05;;;6.05;;
75423;SDS011;64005;55.160;36.002;2023-06-26T23:08:37;12.13;;;6.10;;
75423;SDS011;64005;55.160;36.002;2023-06-26T23:13:43;12.30;;;5.70;;
75423;SDS011;64005;55.160;36.002;2023-06-26T23:16:12;11.65;;;5.78;;
75423;SDS011;64005;55.160;36.002;2023-06-26T23:18:40;12.35;;;5.55;;
75423;SDS011;64005;55.160;36.002;2023-06-26T23:21:07;10.70;;;5.88;;
75423;SDS011;64005;55.160;36.002;2023-06-26T23:42:27;12.63;;;6.15;;
75423;SDS011;64005;55.160;36.002;2023-06-26T23:47:30;12.15;;;6.78;;
75423;SDS011;64005;55.160;36.002;2023-06-26T23:56:36;11.52;;;6.32;;
75423;SDS011;64005;55.160;36.002;2023-06-26T23:59:05;12.80;;;5.93;;
